Number One, Kentucky
Current Conditions -  °F | °C
As of 10:56 PM on Wednesday 28 Jan 2015 (Local Time) from KEKQ Reporting Station
Clear Clear  
Wind Chill: -1°   Ceiling: Unl
Heat Index:   Visibility: 10mi
Dew Point: -8°   Wind: 9mph
Humidity: 45%   Direction: 170°S
Pressure: 30.2"   Gusts: NA
Location:  36.8129°N, 84.8215°W
Report Text: KEKQ 290356Z AUTO 17008KT 10SM CLR 03/M08 A3020 RMK AO2 T00271083 SLP236
Loading
Personal Weather Stations






























Interactive Weather Map New forecast layout! Learn more

10-Day Weather Forecast

Advertisements
Track Severe Weather on mobile